West Olive, MI (49460)

1:26 AM EST on January 23, 2017 (GMT -0500)
Sheldon Dunes | | Change Station

Elev 646 ft 42.94 °N, 86.21 °W | Updated 33 seconds ago

Overcast
Overcast
38.1 °F
Feels Like 38 °F
N
0.0
Wind Variable Wind from North
Gusts 0.0 mph

Today
High -- | Low -- °F
--% Chance of Precip.
Yesterday
High -- | Low -- °F
Precip. -- in
Pressure 29.68 in
Visibility -9999.0 miles
Clouds Overcast 600 ft
Windchill 38 °F
Dew Point 36 °F
Humidity 94%
Rainfall 0.00 in
Snow Depth Not available.
8:07 AM 5:46 PM
Waning Crescent, 21% visible
METAR KBIV 230553Z AUTO 00000KT OVC006 05/04 A2967 RMK AO2 SLP051 T00500039 10056 20033 50001 $
Pressure 29.68 in
Visibility -9999.0 miles
Clouds Overcast 600 ft
Windchill 38 °F
Dew Point 36 °F
Humidity 94%
Rainfall 0.00 in
Snow Depth Not available.
8:07 AM 5:46 PM
Waning Crescent, 21% visible
METAR KBIV 230553Z AUTO 00000KT OVC006 05/04 A2967 RMK AO2 SLP051 T00500039 10056 20033 50001 $

Get Your Daily Forecast Email!

Thanks for signing up!

Be on the lookout for a verification email in your inbox.

You'll start receiving the daily forecast at 8 AM.

×

10-Day Weather Forecast

Almanac

Astronomy

Jan. 23, 2017 Rise Set
Actual Time
Civil Twilight
Nautical Twilight
Astronomical Twilight
Moon
Length of Visible Light
Length of Day
Tomorrow will be .
, % of the Moon is Illuminated

Today's Extremes

State Highs State Lows

Community

WunderPhotos

Upload Photos

1,962,540 photos uploaded!

WunderBlog® & News

Nearby

Air Quality

  Air Quality AQ Index Pollutant
Not available.

Snow Depth

Station Depth Elevation

Earthquake Activity

City Distance Mag. Time & Date
Minimum magnitude displayed is 2.5.

Coastal Water Temperatures

Place Temperature

Stations

Nearby Weather Stations

Station Location Temp. Windchill Dew Point Humidity Wind Precip. Elev Updated Type
                   

Watches & Warnings

Dense Fog Advisory
Issued: 9:13 PM EST Jan. 22, 2017 – National Weather Service

... Dense fog advisory remains in effect until 10 am EST Monday...

Hazardous weather...

* widespread dense fog will develop again this evening into
   overnight.

* Visibilities will be one-quarter mile or less.

* Fog will gradually dissipate through early and mid Monday
   morning.

Impacts...

* hazardous driving conditions due to reduced visibilities.

* You will need to allow extra time to reach your destination
   due to slower travel speeds.

Precautionary/preparedness actions...

* if driving... slow down... use low beam headlights... and leave
   plenty of distance ahead of you.




Marine Fog Advisory
Issued: 9:14 PM EST Jan. 22, 2017 – National Weather Service

... Dense fog advisory remains in effect until 10 am EST Monday...

* visibility... one quarter mile or less.

* Timing... continuing and becoming dense again this evening and
overnight.

Precautionary/preparedness actions...

* inexperienced mariners... especially those operating smaller
vessels... should avoid navigating in these conditions.